createdAt,value
2018-09-21T00:01:02.354Z,99751.12
2018-09-21T00:03:30.412Z,99752.62
2018-09-21T00:05:58.504Z,99756.31
2018-09-21T00:08:26.606Z,99753.52
2018-09-21T00:10:54.803Z,99748.97
2018-09-21T00:13:22.887Z,99745.95
2018-09-21T00:15:51.004Z,99740.77
2018-09-21T00:18:19.077Z,99740.44
2018-09-21T00:20:47.161Z,99735.09
2018-09-21T00:23:15.245Z,99734.92
2018-09-21T00:25:43.325Z,99730.19
2018-09-21T00:28:11.415Z,99725.03
2018-09-21T00:30:39.468Z,99724.67
2018-09-21T00:33:07.536Z,99726.20
2018-09-21T00:35:35.632Z,99720.23
2018-09-21T00:38:03.707Z,99714.62
2018-09-21T00:40:31.771Z,99712.69
2018-09-21T00:42:59.820Z,99710.03
2018-09-21T00:45:27.881Z,99710.13
2018-09-21T00:47:55.941Z,99697.86
2018-09-21T00:50:24.004Z,99696.73
2018-09-21T00:52:52.090Z,99694.97
2018-09-21T00:55:20.153Z,99686.22
2018-09-21T00:57:48.246Z,99686.03
2018-09-21T01:00:16.296Z,99681.77
2018-09-21T01:02:44.380Z,99678.36
2018-09-21T01:05:12.474Z,99674.30
2018-09-21T01:07:40.568Z,99665.55
2018-09-21T01:10:08.647Z,99664.14
2018-09-21T01:12:36.724Z,99660.91
2018-09-21T01:15:04.849Z,99659.75
2018-09-21T01:17:32.935Z,99659.61
2018-09-21T01:20:01.017Z,99648.66
2018-09-21T01:22:29.108Z,99651.01
2018-09-21T01:24:57.156Z,99649.78
2018-09-21T01:27:25.315Z,99644.88
2018-09-21T01:29:53.399Z,99644.55
2018-09-21T01:32:21.473Z,99637.17
2018-09-21T01:34:49.544Z,99632.81
2018-09-21T01:37:17.637Z,99638.58
2018-09-21T01:39:45.715Z,99631.56
2018-09-21T01:42:13.811Z,99632.02
2018-09-21T01:44:41.896Z,99627.64
2018-09-21T01:47:10.003Z,99614.58
2018-09-21T01:49:38.083Z,99617.89
2018-09-21T01:52:06.230Z,99612.28
2018-09-21T01:54:34.351Z,99608.22
2018-09-21T01:57:02.461Z,99598.25
2018-09-21T01:59:30.544Z,99599.55
2018-09-21T02:01:58.642Z,99594.38
2018-09-21T02:04:32.216Z,99580.95
2018-09-21T02:07:00.317Z,99585.45
2018-09-21T02:09:28.425Z,99578.25
2018-09-21T02:11:56.540Z,99578.72
2018-09-21T02:14:24.642Z,99579.84
2018-09-21T02:16:53.910Z,99575.70
2018-09-21T02:19:22.443Z,99569.63
2018-09-21T02:21:51.007Z,99563.69
2018-09-21T02:24:19.218Z,99563.69
2018-09-21T02:26:47.278Z,99556.39
2018-09-21T02:29:15.411Z,99557.61
2018-09-21T02:31:43.475Z,99550.16
2018-09-21T02:34:11.573Z,99548.19
2018-09-21T02:36:39.665Z,99549.09
2018-09-21T02:39:09.269Z,99540.89
2018-09-21T02:41:37.626Z,99533.26
2018-09-21T02:44:06.133Z,99532.47
2018-09-21T02:46:34.395Z,99529.37
2018-09-21T02:49:02.785Z,99524.45
2018-09-21T02:51:30.856Z,99520.41
2018-09-21T02:53:58.950Z,99516.31
2018-09-21T02:56:27.062Z,99514.16
2018-09-21T02:58:55.160Z,99510.19
2018-09-21T03:01:23.229Z,99499.11
2018-09-21T03:03:51.672Z,99494.25
2018-09-21T03:06:20.215Z,99485.42
2018-09-21T03:08:48.340Z,99479.14
2018-09-21T03:11:16.487Z,99480.04
2018-09-21T03:13:44.574Z,99478.63
2018-09-21T03:16:12.674Z,99475.77
2018-09-21T03:18:40.779Z,99461.91
2018-09-21T03:21:08.870Z,99453.95
2018-09-21T03:23:36.942Z,99448.89
2018-09-21T03:26:05.089Z,99445.58
2018-09-21T03:28:33.173Z,99445.72
2018-09-21T03:31:01.275Z,99434.76
2018-09-21T03:33:29.367Z,99429.90
2018-09-21T03:35:57.427Z,99431.05
2018-09-21T03:38:25.533Z,99415.29
2018-09-21T03:40:53.656Z,99411.41
2018-09-21T03:43:21.799Z,99403.28
2018-09-21T03:45:49.913Z,99391.62
2018-09-21T03:48:18.071Z,99383.84
2018-09-21T03:50:46.175Z,99371.57
2018-09-21T03:53:14.260Z,99380.72
2018-09-21T03:55:42.570Z,99384.60
2018-09-21T03:58:10.661Z,99382.80
2018-09-21T04:00:38.740Z,99371.86
2018-09-21T04:03:06.843Z,99375.11
2018-09-21T04:05:34.970Z,99363.56
2018-09-21T04:08:03.060Z,99363.70
2018-09-21T04:10:31.164Z,99361.25
2018-09-21T04:12:59.244Z,99348.45
2018-09-21T04:15:27.480Z,99328.80
2018-09-21T04:17:55.577Z,99321.20
2018-09-21T04:20:23.683Z,99316.23
2018-09-21T04:23:01.174Z,99301.84
2018-09-21T04:25:29.499Z,99298.75
2018-09-21T04:27:57.638Z,99303.13
2018-09-21T04:30:26.840Z,99302.47
2018-09-21T04:32:55.008Z,99302.47
2018-09-21T04:35:23.134Z,99292.15
2018-09-21T04:37:51.676Z,99283.73
2018-09-21T04:40:19.819Z,99277.80
2018-09-21T04:42:47.986Z,99282.63
2018-09-21T04:45:16.126Z,99281.63
2018-09-21T04:47:44.295Z,99270.29
2018-09-21T04:50:13.668Z,99269.97
2018-09-21T04:52:41.746Z,99263.25
2018-09-21T04:55:09.909Z,99258.89
2018-09-21T04:57:38.276Z,99262.05
2018-09-21T05:00:07.384Z,99253.45
2018-09-21T05:02:35.513Z,99263.45
2018-09-21T05:05:03.734Z,99257.48
2018-09-21T05:07:31.907Z,99247.35
2018-09-21T05:10:00.104Z,99252.23
2018-09-21T05:12:28.204Z,99246.76
2018-09-21T05:14:56.333Z,99248.04
2018-09-21T05:17:24.475Z,99241.08
2018-09-21T05:19:52.583Z,99242.20
2018-09-21T05:22:20.667Z,99242.55
2018-09-21T05:24:48.744Z,99236.34
2018-09-21T05:27:16.869Z,99231.21
2018-09-21T05:29:44.976Z,99233.80
2018-09-21T05:32:13.071Z,99223.69
2018-09-21T05:34:41.290Z,99223.13
2018-09-21T05:37:09.322Z,99217.08
2018-09-21T05:39:37.488Z,99211.81
2018-09-21T05:42:05.794Z,99211.76
2018-09-21T05:44:33.917Z,99211.80
2018-09-21T05:47:02.164Z,99201.98
2018-09-21T05:49:30.305Z,99205.30
2018-09-21T05:51:58.421Z,99199.09
2018-09-21T05:54:26.502Z,99202.08
2018-09-21T05:56:54.605Z,99204.44
2018-09-21T05:59:22.683Z,99197.43
2018-09-21T06:01:50.812Z,99199.77
2018-09-21T06:04:18.920Z,99190.64
2018-09-21T06:06:47.049Z,99194.51
2018-09-21T06:09:15.173Z,99182.84
2018-09-21T06:11:44.438Z,99191.79
2018-09-21T06:14:13.561Z,99194.28
2018-09-21T06:16:41.703Z,99193.69
2018-09-21T06:19:09.788Z,99191.85
2018-09-21T06:21:37.921Z,99174.33
2018-09-21T06:24:06.049Z,99190.63
2018-09-21T06:26:34.281Z,99186.13
2018-09-21T06:29:02.401Z,99182.23
2018-09-21T06:31:30.600Z,99179.43
2018-09-21T06:33:58.751Z,99175.50
2018-09-21T06:36:26.962Z,99149.81
2018-09-21T06:38:55.036Z,99155.78
2018-09-21T06:41:23.169Z,99156.27
2018-09-21T06:43:51.289Z,99164.88
2018-09-21T06:46:19.433Z,99156.13
2018-09-21T06:48:47.562Z,99150.47
2018-09-21T06:51:15.687Z,99149.68
2018-09-21T06:53:43.788Z,99155.34
2018-09-21T06:56:11.913Z,99150.17
2018-09-21T06:58:40.065Z,99148.90
2018-09-21T07:01:08.263Z,99142.02
2018-09-21T07:03:36.389Z,99139.34
2018-09-21T07:06:04.549Z,99137.74
2018-09-21T07:08:32.731Z,99129.00
2018-09-21T07:11:00.884Z,99139.61
2018-09-21T07:13:29.126Z,99140.39
2018-09-21T07:15:57.262Z,99135.05
2018-09-21T07:18:25.396Z,99149.39
2018-09-21T07:20:54.612Z,99154.37
2018-09-21T07:23:22.707Z,99140.23
2018-09-21T07:25:50.809Z,99140.23
2018-09-21T07:28:18.945Z,99142.64
2018-09-21T07:30:47.095Z,99136.50
2018-09-21T07:33:15.231Z,99143.97
2018-09-21T07:35:43.463Z,99136.34
2018-09-21T07:38:11.589Z,99139.73
2018-09-21T07:40:39.678Z,99131.56
2018-09-21T07:43:07.816Z,99158.17
2018-09-21T07:45:35.892Z,99131.47
2018-09-21T07:48:04.057Z,99135.48
2018-09-21T07:50:32.329Z,99174.91
2018-09-21T07:53:00.428Z,99153.19
2018-09-21T07:55:28.517Z,99139.84
2018-09-21T07:57:56.635Z,99132.41
2018-09-21T08:00:24.779Z,99140.27
2018-09-21T08:02:52.900Z,99131.05
2018-09-21T08:05:27.540Z,99132.80
2018-09-21T08:07:55.760Z,99160.70
2018-09-21T08:10:23.897Z,99166.52
2018-09-21T08:12:51.983Z,99159.17
2018-09-21T08:15:20.101Z,99175.88
2018-09-21T08:17:48.220Z,99159.22
2018-09-21T08:20:16.451Z,99175.17
2018-09-21T08:22:44.597Z,99182.16
2018-09-21T08:25:12.795Z,99184.02
2018-09-21T08:27:40.818Z,99183.08
2018-09-21T08:30:08.948Z,99175.95
2018-09-21T08:32:37.083Z,99187.30
2018-09-21T08:35:05.939Z,99187.20
2018-09-21T08:37:34.133Z,99183.00
2018-09-21T08:40:02.389Z,99178.74
2018-09-21T08:42:30.492Z,99187.03
2018-09-21T08:44:58.619Z,99162.20
2018-09-21T08:47:26.724Z,99167.17
2018-09-21T08:49:55.134Z,99187.11
2018-09-21T08:52:23.269Z,99157.09
2018-09-21T08:54:51.450Z,99145.95
2018-09-21T08:57:19.641Z,99145.95
2018-09-21T08:59:47.813Z,99147.94
2018-09-21T09:02:15.940Z,99144.54
2018-09-21T09:04:44.065Z,99134.31
2018-09-21T09:07:12.172Z,99130.45
2018-09-21T09:09:40.295Z,99130.95
2018-09-21T09:12:08.408Z,99118.90
2018-09-21T09:14:36.512Z,99131.45
2018-09-21T09:17:04.653Z,99132.95
2018-09-21T09:19:32.786Z,99113.27
2018-09-21T09:22:00.889Z,99123.54
2018-09-21T09:24:29.046Z,99124.28
2018-09-21T09:26:57.154Z,99111.64
2018-09-21T09:29:25.259Z,99113.34
2018-09-21T09:31:53.389Z,99098.18
2018-09-21T09:34:21.488Z,99121.72
2018-09-21T09:36:49.598Z,99121.09
2018-09-21T09:39:17.667Z,99126.97
2018-09-21T09:41:45.740Z,99136.27
2018-09-21T09:44:13.823Z,99133.81
2018-09-21T09:46:41.968Z,99157.72
2018-09-21T09:49:10.207Z,99156.13
2018-09-21T09:51:38.346Z,99169.95
2018-09-21T09:54:06.522Z,99178.01
2018-09-21T09:56:34.744Z,99188.33
2018-09-21T09:59:02.901Z,99199.17
2018-09-21T10:01:31.171Z,99223.13
2018-09-21T10:03:59.373Z,99236.83
2018-09-21T10:06:27.465Z,99270.22
2018-09-21T10:08:55.656Z,99280.95
2018-09-21T10:11:23.769Z,99305.67
2018-09-21T10:16:19.178Z,99344.98
2018-09-21T10:18:47.269Z,99381.56
2018-09-21T10:21:15.389Z,99361.20
2018-09-21T10:23:43.603Z,99387.09
2018-09-21T10:26:11.756Z,99385.30
2018-09-21T10:28:40.106Z,99399.87
2018-09-21T10:31:08.041Z,99407.61
2018-09-21T10:33:36.222Z,99410.58
2018-09-21T10:36:04.331Z,99427.14
2018-09-21T10:38:32.508Z,99432.20
2018-09-21T10:41:00.905Z,99440.56
2018-09-21T10:43:29.074Z,99441.82
2018-09-21T10:45:57.239Z,99438.89
2018-09-21T10:48:25.377Z,99444.59
2018-09-21T10:50:53.513Z,99437.44
2018-09-21T10:53:21.637Z,99440.62
2018-09-21T10:55:49.810Z,99455.47
2018-09-21T10:58:17.986Z,99471.54
2018-09-21T11:00:46.195Z,99467.37
2018-09-21T11:03:14.353Z,99472.72
2018-09-21T11:05:42.552Z,99477.45
2018-09-21T11:08:10.706Z,99467.17
2018-09-21T11:10:38.848Z,99481.59
2018-09-21T11:13:07.070Z,99490.52
2018-09-21T11:15:35.138Z,99497.45
2018-09-21T11:18:03.259Z,99503.67
2018-09-21T11:20:31.405Z,99506.45
2018-09-21T11:22:59.665Z,99512.54
2018-09-21T11:25:27.881Z,99516.89
2018-09-21T11:27:56.029Z,99506.53
2018-09-21T11:30:24.394Z,99490.28
2018-09-21T11:32:52.621Z,99480.11
2018-09-21T11:35:20.816Z,99492.23
2018-09-21T11:37:48.955Z,99489.04
2018-09-21T11:40:17.102Z,99477.47
2018-09-21T11:42:45.297Z,99484.41
2018-09-21T11:45:13.496Z,99493.55
2018-09-21T11:47:41.685Z,99503.27
2018-09-21T11:50:09.828Z,99525.50
2018-09-21T11:52:38.041Z,99534.78
2018-09-21T11:55:06.246Z,99521.89
2018-09-21T11:57:34.377Z,99514.84
2018-09-21T12:00:02.596Z,99518.55
2018-09-21T12:02:30.696Z,99530.80
2018-09-21T12:04:58.787Z,99526.94
2018-09-21T12:07:26.865Z,99530.89
2018-09-21T12:09:54.937Z,99528.02
2018-09-21T12:12:23.052Z,99515.36
2018-09-21T12:14:51.290Z,99521.27
2018-09-21T12:17:19.472Z,99530.13
2018-09-21T12:19:47.868Z,99520.75
2018-09-21T12:22:16.090Z,99533.48
2018-09-21T12:24:44.250Z,99540.38
2018-09-21T12:27:12.296Z,99547.10
2018-09-21T12:29:40.391Z,99548.23
2018-09-21T12:32:08.537Z,99547.13
2018-09-21T12:34:36.715Z,99546.30
2018-09-21T12:37:04.780Z,99552.61
2018-09-21T12:39:32.953Z,99565.22
2018-09-21T12:42:01.096Z,99548.72
2018-09-21T12:44:29.195Z,99560.19
2018-09-21T12:46:57.244Z,99561.27
2018-09-21T12:49:25.343Z,99555.84
2018-09-21T12:51:53.399Z,99552.33
2018-09-21T12:54:21.504Z,99557.53
2018-09-21T12:56:49.570Z,99563.25
2018-09-21T12:59:17.664Z,99556.29
2018-09-21T13:01:45.745Z,99556.19
2018-09-21T13:04:13.821Z,99561.20
2018-09-21T13:06:41.882Z,99571.88
2018-09-21T13:09:09.954Z,99552.75
2018-09-21T13:11:38.048Z,99564.08
2018-09-21T13:14:06.119Z,99546.15
2018-09-21T13:16:34.218Z,99564.81
2018-09-21T13:19:02.344Z,99548.25
2018-09-21T13:21:30.474Z,99554.17
2018-09-21T13:23:58.632Z,99565.72
2018-09-21T13:26:26.793Z,99562.53
2018-09-21T13:28:54.868Z,99560.38
2018-09-21T13:31:23.013Z,99578.05
2018-09-21T13:33:51.100Z,99568.89
2018-09-21T13:36:19.177Z,99584.78
2018-09-21T13:38:47.251Z,99595.19
2018-09-21T13:41:15.429Z,99595.48
2018-09-21T13:43:43.522Z,99595.20
2018-09-21T13:46:11.583Z,99592.06
2018-09-21T13:48:40.065Z,99600.39
2018-09-21T13:51:08.250Z,99594.98
2018-09-21T13:53:36.316Z,99588.72
2018-09-21T13:56:04.536Z,99591.44
2018-09-21T13:58:33.084Z,99593.47
2018-09-21T14:01:02.138Z,99603.81
2018-09-21T14:03:30.297Z,99600.44
2018-09-21T14:06:02.577Z,99598.65
2018-09-21T14:08:30.637Z,99620.22
2018-09-21T14:10:58.756Z,99619.39
2018-09-21T14:13:26.820Z,99624.95
2018-09-21T14:15:54.899Z,99631.25
2018-09-21T14:18:22.992Z,99628.09
2018-09-21T14:20:51.084Z,99646.68
2018-09-21T14:23:19.169Z,99651.03
2018-09-21T14:25:47.267Z,99653.19
2018-09-21T14:28:15.328Z,99650.09
2018-09-21T14:30:43.423Z,99653.45
2018-09-21T14:33:11.488Z,99656.90
2018-09-21T14:35:39.601Z,99668.58
2018-09-21T14:38:07.784Z,99674.12
2018-09-21T14:40:35.864Z,99686.49
2018-09-21T14:43:04.027Z,99677.37
2018-09-21T14:45:32.073Z,99681.81
2018-09-21T14:48:00.233Z,99685.59
2018-09-21T14:50:28.229Z,99680.41
2018-09-21T14:52:56.633Z,99683.20
2018-09-21T14:55:24.728Z,99684.69
2018-09-21T14:57:52.842Z,99692.22
2018-09-21T15:00:20.925Z,99686.61
2018-09-21T15:02:49.094Z,99696.50
2018-09-21T15:05:17.257Z,99707.92
2018-09-21T15:07:45.356Z,99693.06
2018-09-21T15:10:13.421Z,99698.00
2018-09-21T15:12:41.481Z,99697.30
2018-09-21T15:15:09.552Z,99693.75
2018-09-21T15:17:37.601Z,99688.05
2018-09-21T15:20:05.710Z,99690.83
2018-09-21T15:22:33.792Z,99700.12
2018-09-21T15:25:01.835Z,99706.20
2018-09-21T15:27:29.934Z,99712.01
2018-09-21T15:29:58.088Z,99705.27
2018-09-21T15:32:26.207Z,99708.36
2018-09-21T15:34:54.321Z,99699.75
2018-09-21T15:37:22.432Z,99707.95
2018-09-21T15:39:50.475Z,99698.77
2018-09-21T15:42:18.540Z,99712.94
2018-09-21T15:44:46.595Z,99714.59
2018-09-21T15:47:14.691Z,99717.45
2018-09-21T15:49:42.740Z,99725.11
2018-09-21T15:52:10.796Z,99727.66
2018-09-21T15:54:38.881Z,99730.02
2018-09-21T15:57:06.933Z,99718.77
2018-09-21T15:59:34.994Z,99729.52
2018-09-21T16:02:03.056Z,99728.09
2018-09-21T16:04:31.921Z,99738.69
2018-09-21T16:07:00.122Z,99733.53
2018-09-21T16:09:28.164Z,99746.80
2018-09-21T16:11:56.329Z,99749.45
2018-09-21T16:14:24.427Z,99742.71
2018-09-21T16:16:52.485Z,99757.72
2018-09-21T16:19:20.536Z,99750.81
2018-09-21T16:21:48.772Z,99751.98
2018-09-21T16:24:16.869Z,99754.30
2018-09-21T16:26:44.928Z,99756.53
2018-09-21T16:29:12.974Z,99763.94
2018-09-21T16:31:41.035Z,99777.28
2018-09-21T16:34:09.107Z,99776.34
2018-09-21T16:36:37.221Z,99772.78
2018-09-21T16:39:08.108Z,99773.22
2018-09-21T16:41:36.241Z,99782.63
2018-09-21T16:44:04.482Z,99777.91
2018-09-21T16:46:32.556Z,99806.52
2018-09-21T16:49:00.647Z,99799.22
2018-09-21T16:51:28.737Z,99787.94
2018-09-21T16:53:56.784Z,99792.92
2018-09-21T16:56:24.845Z,99799.09
2018-09-21T16:58:53.058Z,99791.17
2018-09-21T17:01:21.015Z,99790.61
2018-09-21T17:03:49.237Z,99793.83
2018-09-21T17:06:17.381Z,99800.59
2018-09-21T17:08:45.426Z,99798.80
2018-09-21T17:11:13.525Z,99802.80
2018-09-21T17:13:41.568Z,99807.19
2018-09-21T17:16:09.611Z,99801.25
2018-09-21T17:18:37.660Z,99815.36
2018-09-21T17:21:05.794Z,99823.11
2018-09-21T17:23:33.800Z,99829.28
2018-09-21T17:26:01.887Z,99834.45
2018-09-21T17:28:29.939Z,99838.83
2018-09-21T17:30:58.072Z,99844.41
2018-09-21T17:33:26.128Z,99853.33
2018-09-21T17:35:54.179Z,99860.47
2018-09-21T17:38:22.224Z,99859.66
2018-09-21T17:40:50.328Z,99875.33
2018-09-21T17:43:18.391Z,99873.53
2018-09-21T17:45:46.504Z,99885.25
2018-09-21T17:48:14.580Z,99887.44
2018-09-21T17:50:42.647Z,99907.05
2018-09-21T17:53:10.716Z,99909.81
2018-09-21T17:55:38.786Z,99917.75
2018-09-21T17:58:06.857Z,99925.09
2018-09-21T18:00:34.908Z,99931.78
2018-09-21T18:03:03.007Z,99939.88
2018-09-21T18:05:31.122Z,99942.27
2018-09-21T18:07:59.239Z,99954.17
2018-09-21T18:10:27.369Z,99952.17
2018-09-21T18:12:55.495Z,99960.68
2018-09-21T18:15:23.670Z,99966.80
2018-09-21T18:17:51.914Z,99969.17
2018-09-21T18:20:24.528Z,99966.78
2018-09-21T18:22:52.873Z,99980.05
2018-09-21T18:25:20.916Z,99978.23
2018-09-21T18:27:49.377Z,99980.61
2018-09-21T18:30:17.711Z,99986.94
2018-09-21T18:32:47.704Z,99987.34
2018-09-21T18:35:16.279Z,99985.37
2018-09-21T18:37:44.512Z,99988.13
2018-09-21T18:40:12.823Z,99994.04
2018-09-21T18:42:41.004Z,99999.19
2018-09-21T18:45:09.667Z,99998.20
2018-09-21T18:47:39.101Z,99999.59
2018-09-21T18:50:09.900Z,100007.35
2018-09-21T18:52:38.227Z,100014.69
2018-09-21T18:55:06.510Z,100018.66
2018-09-21T18:57:34.595Z,100025.75
2018-09-21T19:00:02.904Z,100025.95
2018-09-21T19:02:37.115Z,100028.31
2018-09-21T19:05:05.695Z,100027.30
2018-09-21T19:07:33.856Z,100028.88
2018-09-21T19:10:02.033Z,100037.20
2018-09-21T19:12:30.468Z,100047.89
2018-09-21T19:14:58.650Z,100054.83
2018-09-21T19:17:30.318Z,100063.15
2018-09-21T19:19:58.503Z,100066.75
2018-09-21T19:22:26.842Z,100071.91
2018-09-21T19:24:56.811Z,100080.63
2018-09-21T19:27:24.976Z,100090.34
2018-09-21T19:29:53.125Z,100109.78
2018-09-21T19:32:21.227Z,100113.77
2018-09-21T19:34:50.439Z,100108.40
2018-09-21T19:37:18.580Z,100116.77
2018-09-21T19:39:46.861Z,100128.12
2018-09-21T19:42:16.420Z,100139.88
2018-09-21T19:44:44.601Z,100130.19
2018-09-21T19:47:12.817Z,100142.13
2018-09-21T19:49:40.909Z,100142.05
2018-09-21T19:52:09.881Z,100138.77
2018-09-21T19:54:38.271Z,100135.26
2018-09-21T19:57:06.636Z,100150.16
2018-09-21T19:59:34.759Z,100154.83
2018-09-21T20:02:04.688Z,100162.90
2018-09-21T20:04:32.928Z,100168.16
2018-09-21T20:07:01.237Z,100174.62
2018-09-21T20:09:29.373Z,100168.83
2018-09-21T20:11:59.188Z,100176.94
2018-09-21T20:14:28.078Z,100190.13
2018-09-21T20:16:56.256Z,100195.47
2018-09-21T20:19:24.589Z,100202.06
2018-09-21T20:21:52.684Z,100214.25
2018-09-21T20:24:20.778Z,100234.73
2018-09-21T20:26:48.882Z,100252.62
2018-09-21T20:29:16.996Z,100247.12
2018-09-21T20:31:50.443Z,100235.09
2018-09-21T20:34:18.532Z,100211.98
2018-09-21T20:36:46.640Z,100221.36
2018-09-21T20:39:14.739Z,100215.73
2018-09-21T20:41:42.816Z,100222.92
2018-09-21T20:44:10.901Z,100211.69
2018-09-21T20:46:39.885Z,100228.30
2018-09-21T20:49:07.960Z,100220.53
2018-09-21T20:51:36.040Z,100226.77
2018-09-21T20:54:04.153Z,100233.72
2018-09-21T20:56:38.905Z,100225.12
2018-09-21T20:59:07.004Z,100237.91
2018-09-21T21:01:35.172Z,100244.85
2018-09-21T21:04:03.235Z,100238.67
2018-09-21T21:06:31.316Z,100231.25
2018-09-21T21:08:59.438Z,100197.84
2018-09-21T21:11:27.564Z,100216.70
2018-09-21T21:13:55.621Z,100203.86
2018-09-21T21:16:23.717Z,100226.40
2018-09-21T21:18:51.900Z,100205.72
2018-09-21T21:23:59.168Z,100218.36
2018-09-21T21:26:27.978Z,100212.41
2018-09-21T21:28:56.666Z,100215.38
2018-09-21T21:31:24.805Z,100216.31
2018-09-21T21:33:53.261Z,100220.69
2018-09-21T21:36:28.767Z,100209.42
2018-09-21T21:38:58.552Z,100225.69
2018-09-21T21:41:26.693Z,100243.33
2018-09-21T21:43:54.776Z,100257.58
2018-09-21T21:46:22.876Z,100251.70
2018-09-21T21:48:50.938Z,100250.78
2018-09-21T21:51:19.037Z,100253.84
2018-09-21T21:53:47.270Z,100254.94
2018-09-21T21:56:15.373Z,100239.58
2018-09-21T21:58:43.467Z,100240.38
2018-09-21T22:01:17.517Z,100241.05
2018-09-21T22:03:51.924Z,100237.37
2018-09-21T22:06:20.040Z,100237.23
2018-09-21T22:08:48.133Z,100247.41
2018-09-21T22:11:21.563Z,100236.38
2018-09-21T22:13:54.880Z,100241.43
2018-09-21T22:16:23.044Z,100243.61
2018-09-21T22:18:51.126Z,100246.23
2018-09-21T22:21:19.269Z,100260.11
2018-09-21T22:23:47.344Z,100245.26
2018-09-21T22:26:15.632Z,100241.78
2018-09-21T22:28:43.857Z,100250.52
2018-09-21T22:31:11.999Z,100241.09
2018-09-21T22:33:40.071Z,100258.34
2018-09-21T22:36:08.227Z,100287.20
2018-09-21T22:38:36.389Z,100282.02
2018-09-21T22:41:04.500Z,100303.30
2018-09-21T22:43:32.607Z,100316.34
2018-09-21T22:46:00.684Z,100326.24
2018-09-21T22:48:28.872Z,100330.31
2018-09-21T22:50:57.142Z,100330.23
2018-09-21T22:53:25.398Z,100311.91
2018-09-21T22:55:53.631Z,100287.74
2018-09-21T22:58:21.805Z,100280.18
2018-09-21T23:00:49.961Z,100300.73
2018-09-21T23:03:18.098Z,100306.29
2018-09-21T23:05:46.260Z,100292.70
2018-09-21T23:08:14.367Z,100287.85
2018-09-21T23:10:42.472Z,100286.41
2018-09-21T23:13:10.776Z,100294.84
2018-09-21T23:15:38.880Z,100302.82
2018-09-21T23:18:07.065Z,100317.19
2018-09-21T23:20:35.175Z,100319.95
2018-09-21T23:23:03.311Z,100319.14
2018-09-21T23:25:31.405Z,100309.14
2018-09-21T23:27:59.520Z,100309.81
2018-09-21T23:30:27.612Z,100314.38
2018-09-21T23:32:55.731Z,100320.13
2018-09-21T23:35:23.829Z,100326.61
2018-09-21T23:37:51.944Z,100328.02
2018-09-21T23:40:20.028Z,100324.16
2018-09-21T23:42:48.104Z,100332.16
2018-09-21T23:45:16.261Z,100338.99
2018-09-21T23:47:44.359Z,100335.77
2018-09-21T23:50:12.451Z,100345.12
2018-09-21T23:52:40.582Z,100345.12
2018-09-21T23:55:08.663Z,100351.30
2018-09-21T23:57:36.736Z,100340.84
